Terminal Aerodrome Forecast
Issued by NWS

Home | Current Version | Previous Version | Text Only | Print | Product List | Glossary On
Versions: 1 2 3 4 5 6 7 8 9 10 11 12 13
000
FTUS41 KCAR 032320
TAFPQI
TAF
KPQI 032320Z 0400/0424 18006KT P6SM BKN200
     FM040200 17006KT P6SM OVC050
     FM040400 16010KT 3SM -SN OVC010
     FM040500 19009KT 1SM -SN BR OVC007
     FM041200 20009KT P6SM OVC015
     FM041500 21010G20KT P6SM OVC025
      AMD LTD TO CLD VIS AND WIND=

USA.gov is the U.S. government's official web portal to all federal, state and local government web resources and services.